createdAt,value
2023-05-14T00:01:04.185Z,84.8894
2023-05-14T00:02:12.333Z,85.3944
2023-05-14T00:03:20.506Z,85.8699
2023-05-14T00:04:28.275Z,85.7519
2023-05-14T00:05:36.323Z,85.5024
2023-05-14T00:06:44.457Z,86.0708
2023-05-14T00:07:52.611Z,85.2398
2023-05-14T00:09:00.629Z,86.1416
2023-05-14T00:10:08.724Z,86.1832
2023-05-14T00:11:16.771Z,86.6079
2023-05-14T00:12:24.841Z,86.3559
2023-05-14T00:13:33.108Z,86.0612
2023-05-14T00:14:41.098Z,86.2794
2023-05-14T00:15:49.067Z,86.5593
2023-05-14T00:16:57.226Z,86.0403
2023-05-14T00:18:05.340Z,85.9411
2023-05-14T00:19:13.136Z,86.2956
2023-05-14T00:20:21.322Z,86.6373
2023-05-14T00:21:29.217Z,86.6532
2023-05-14T00:22:37.414Z,86.7457
2023-05-14T00:23:45.647Z,86.3391
2023-05-14T00:24:53.544Z,85.5984
2023-05-14T00:26:01.569Z,85.5160
2023-05-14T00:27:09.662Z,85.7117
2023-05-14T00:28:17.779Z,86.6187
2023-05-14T00:29:25.883Z,87.4653
2023-05-14T00:30:33.961Z,85.9263
2023-05-14T00:31:41.913Z,86.0111
2023-05-14T00:32:50.025Z,85.3531
2023-05-14T00:33:57.879Z,85.6932
2023-05-14T00:35:05.984Z,85.0675
2023-05-14T00:36:14.005Z,85.7320
2023-05-14T00:37:22.188Z,86.0963
2023-05-14T00:38:30.233Z,86.2778
2023-05-14T00:39:38.447Z,86.1953
2023-05-14T00:40:46.426Z,86.2656
2023-05-14T00:41:54.445Z,86.6022
2023-05-14T00:43:02.511Z,86.9731
2023-05-14T00:44:10.524Z,86.5631
2023-05-14T00:45:18.616Z,86.9280
2023-05-14T00:46:26.850Z,87.0773
2023-05-14T00:47:34.981Z,86.6067
2023-05-14T00:48:42.656Z,87.4130
2023-05-14T00:49:50.759Z,87.2390
2023-05-14T00:50:58.779Z,87.0750
2023-05-14T00:52:07.014Z,87.4526
2023-05-14T00:53:15.016Z,87.6555
2023-05-14T00:54:23.096Z,87.8085
2023-05-14T00:55:31.260Z,86.9611
2023-05-14T00:56:39.305Z,87.2663
2023-05-14T00:57:47.300Z,87.5689
2023-05-14T00:58:55.302Z,87.6584
2023-05-14T01:00:03.429Z,87.1842
2023-05-14T01:01:11.600Z,86.6590
2023-05-14T01:02:19.553Z,87.1133
2023-05-14T01:03:27.632Z,87.5396
2023-05-14T01:04:35.494Z,87.7004
2023-05-14T01:05:43.571Z,87.5517
2023-05-14T01:06:51.740Z,87.0168
2023-05-14T01:07:59.921Z,86.9052
2023-05-14T01:09:07.952Z,86.5951
2023-05-14T01:10:15.942Z,86.3512
2023-05-14T01:11:24.136Z,86.6462
2023-05-14T01:12:32.068Z,87.0942
2023-05-14T01:13:40.108Z,86.9971
2023-05-14T01:14:48.235Z,86.5933
2023-05-14T01:15:56.217Z,86.6101
2023-05-14T01:17:04.321Z,86.8376
2023-05-14T01:18:12.368Z,85.9242
2023-05-14T01:19:20.269Z,86.3305
2023-05-14T01:20:28.384Z,85.8770
2023-05-14T01:21:36.518Z,86.6224
2023-05-14T01:22:44.595Z,86.2323
2023-05-14T01:23:52.722Z,86.5057
2023-05-14T01:25:00.721Z,86.8630
2023-05-14T01:26:08.835Z,86.1452
2023-05-14T01:27:16.863Z,86.6834
2023-05-14T01:28:24.891Z,87.1383
2023-05-14T01:29:32.968Z,87.2576
2023-05-14T01:30:41.026Z,87.5386
2023-05-14T01:31:49.162Z,86.8883
2023-05-14T01:32:57.085Z,87.7025
2023-05-14T01:34:05.057Z,86.7567
2023-05-14T01:35:13.185Z,86.5957
2023-05-14T01:36:21.445Z,86.4947
2023-05-14T01:37:29.581Z,86.4238
2023-05-14T01:38:37.508Z,86.7338
2023-05-14T01:39:45.473Z,86.2234
2023-05-14T01:40:53.553Z,86.8234
2023-05-14T01:42:01.684Z,86.0938
2023-05-14T01:43:09.750Z,86.3197
2023-05-14T01:44:17.753Z,86.2638
2023-05-14T01:45:25.846Z,85.4087
2023-05-14T01:46:34.042Z,85.5555
2023-05-14T01:47:41.805Z,86.7554
2023-05-14T01:48:49.859Z,86.2720
2023-05-14T01:49:57.920Z,85.8479
2023-05-14T01:51:06.098Z,85.8822
2023-05-14T01:52:14.247Z,86.1915
2023-05-14T01:53:22.205Z,85.9178
2023-05-14T01:54:30.316Z,84.5378
2023-05-14T01:55:38.307Z,85.5145
2023-05-14T01:56:46.387Z,85.5235
2023-05-14T01:57:54.436Z,85.2712
2023-05-14T01:59:02.654Z,86.1049
2023-05-14T02:00:10.678Z,85.6706
2023-05-14T02:01:18.710Z,85.0709
2023-05-14T02:02:26.591Z,85.1463
2023-05-14T02:03:34.651Z,85.9816
2023-05-14T02:04:42.709Z,86.0481
2023-05-14T02:05:50.944Z,85.0594
2023-05-14T02:06:58.940Z,84.5292
2023-05-14T02:08:07.125Z,85.7612
2023-05-14T02:09:15.072Z,85.5975
2023-05-14T02:10:23.274Z,85.1553
2023-05-14T02:11:31.239Z,85.3153
2023-05-14T02:12:39.238Z,85.2633
2023-05-14T02:13:47.330Z,86.0528
2023-05-14T02:14:55.425Z,85.2494
2023-05-14T02:16:03.658Z,85.1689
2023-05-14T02:17:11.400Z,85.4932
2023-05-14T02:18:19.401Z,86.4506
2023-05-14T02:19:27.514Z,85.9794
2023-05-14T02:20:35.700Z,86.5023
2023-05-14T02:21:43.731Z,85.2933
2023-05-14T02:22:51.840Z,85.4837
2023-05-14T02:23:59.984Z,85.6974
2023-05-14T02:25:07.922Z,85.4397
2023-05-14T02:26:15.995Z,85.6779
2023-05-14T02:27:24.062Z,85.9884
2023-05-14T02:28:32.155Z,86.4595
2023-05-14T02:29:40.232Z,86.7512
2023-05-14T02:30:48.235Z,86.4199
2023-05-14T02:31:56.213Z,86.7693
2023-05-14T02:33:04.341Z,86.8855
2023-05-14T02:34:12.361Z,86.6953
2023-05-14T02:35:20.465Z,85.9417
2023-05-14T02:36:28.515Z,85.9752
2023-05-14T02:37:36.613Z,86.7850
2023-05-14T02:38:44.674Z,85.8619
2023-05-14T02:39:52.876Z,85.8671
2023-05-14T02:41:00.763Z,85.7968
2023-05-14T02:42:08.860Z,85.6188
2023-05-14T02:43:16.893Z,85.1618
2023-05-14T02:44:24.948Z,84.7924
2023-05-14T02:45:33.038Z,85.0680
2023-05-14T02:46:40.958Z,85.1942
2023-05-14T02:47:49.036Z,85.5942
2023-05-14T02:48:57.024Z,85.4979
2023-05-14T02:50:05.217Z,85.7708
2023-05-14T02:51:13.388Z,85.8904
2023-05-14T02:52:21.370Z,86.0392
2023-05-14T02:53:29.410Z,85.4346
2023-05-14T02:54:37.513Z,85.4025
2023-05-14T02:55:45.661Z,84.9582
2023-05-14T02:56:53.707Z,84.8605
2023-05-14T02:58:01.639Z,85.3455
2023-05-14T02:59:09.676Z,85.9377
2023-05-14T03:00:17.640Z,85.6353
2023-05-14T03:01:25.779Z,85.9928
2023-05-14T03:02:33.907Z,86.9530
2023-05-14T03:03:41.957Z,87.0687
2023-05-14T03:04:50.216Z,86.5655
2023-05-14T03:05:58.071Z,86.2114
2023-05-14T03:07:06.136Z,86.3599
2023-05-14T03:08:14.229Z,86.1284
2023-05-14T03:09:22.308Z,85.8363
2023-05-14T03:10:30.292Z,86.2233
2023-05-14T03:11:38.485Z,85.9324
2023-05-14T03:12:46.487Z,86.4213
2023-05-14T03:13:54.521Z,86.6867
2023-05-14T03:15:02.415Z,86.9089
2023-05-14T03:16:10.460Z,86.6776
2023-05-14T03:17:18.543Z,86.6867
2023-05-14T03:18:26.751Z,86.3605
2023-05-14T03:19:34.841Z,87.0320
2023-05-14T03:20:42.691Z,87.3447
2023-05-14T03:21:50.849Z,86.9478
2023-05-14T03:22:58.954Z,86.2708
2023-05-14T03:24:06.998Z,86.5442
2023-05-14T03:25:15.083Z,86.4735
2023-05-14T03:26:23.105Z,86.0942
2023-05-14T03:27:31.120Z,86.8359
2023-05-14T03:28:39.191Z,87.0053
2023-05-14T03:29:47.110Z,86.9410
2023-05-14T03:30:55.258Z,87.0223
2023-05-14T03:32:03.259Z,86.9971
2023-05-14T03:33:11.671Z,87.0465
2023-05-14T03:34:19.473Z,86.8674
2023-05-14T03:35:27.551Z,86.5557
2023-05-14T03:36:35.721Z,86.6311
2023-05-14T03:37:43.663Z,86.0391
2023-05-14T03:38:51.731Z,86.0052
2023-05-14T03:39:59.741Z,86.3717
2023-05-14T03:41:07.814Z,86.4614
2023-05-14T03:42:15.951Z,87.1465
2023-05-14T03:43:23.921Z,87.3152
2023-05-14T03:44:31.861Z,87.2341
2023-05-14T03:45:39.895Z,87.5174
2023-05-14T03:46:47.975Z,88.0286
2023-05-14T03:47:56.403Z,87.9872
2023-05-14T03:49:04.360Z,87.9485
2023-05-14T03:50:12.293Z,88.6815
2023-05-14T03:51:20.399Z,88.6852
2023-05-14T03:52:28.637Z,88.7325
2023-05-14T03:53:36.481Z,88.9153
2023-05-14T03:54:44.538Z,88.9758
2023-05-14T03:55:52.545Z,88.8052
2023-05-14T03:57:00.854Z,88.1382
2023-05-14T03:58:08.729Z,87.8879
2023-05-14T03:59:16.655Z,87.7866
2023-05-14T04:00:24.885Z,87.6072
2023-05-14T04:01:32.721Z,87.2234
2023-05-14T04:02:41.101Z,87.4882
2023-05-14T04:03:49.160Z,87.4704
2023-05-14T04:04:57.089Z,87.9777
2023-05-14T04:06:05.294Z,88.3414
2023-05-14T04:07:13.110Z,88.0302
2023-05-14T04:08:21.151Z,87.6429
2023-05-14T04:09:29.232Z,87.6725
2023-05-14T04:10:37.309Z,87.1035
2023-05-14T04:11:45.475Z,86.8417
2023-05-14T04:12:53.497Z,87.4525
2023-05-14T04:14:01.425Z,87.0475
2023-05-14T04:15:09.499Z,87.5280
2023-05-14T04:16:17.657Z,87.3811
2023-05-14T04:17:25.904Z,86.0665
2023-05-14T04:18:33.985Z,85.9798
2023-05-14T04:19:41.857Z,87.0200
2023-05-14T04:20:49.915Z,86.9691
2023-05-14T04:21:57.881Z,86.8269
2023-05-14T04:23:06.022Z,87.1615
2023-05-14T04:24:14.138Z,88.3916
2023-05-14T04:25:22.270Z,87.4505
2023-05-14T04:26:30.194Z,87.6671
2023-05-14T04:27:38.333Z,86.6175
2023-05-14T04:28:46.208Z,87.3070
2023-05-14T04:29:54.248Z,87.2501
2023-05-14T04:31:02.338Z,86.8373
2023-05-14T04:32:10.498Z,86.7740
2023-05-14T04:33:18.596Z,86.7474
2023-05-14T04:34:26.834Z,86.2571
2023-05-14T04:35:34.672Z,86.1466
2023-05-14T04:36:42.830Z,86.6912
2023-05-14T04:37:50.769Z,86.7560
2023-05-14T04:38:58.966Z,87.7250
2023-05-14T04:40:06.947Z,87.0433
2023-05-14T04:41:14.967Z,87.0173
2023-05-14T04:42:23.119Z,86.3417
2023-05-14T04:43:30.961Z,85.0948
2023-05-14T04:44:39.045Z,85.1903
2023-05-14T04:45:47.067Z,85.4549
2023-05-14T04:46:55.290Z,86.8022
2023-05-14T04:48:03.343Z,85.5708
2023-05-14T04:49:11.445Z,85.0685
2023-05-14T04:50:19.582Z,85.4885
2023-05-14T04:51:27.494Z,84.0189
2023-05-14T04:52:35.558Z,84.5198
2023-05-14T04:53:43.622Z,85.9512
2023-05-14T04:54:51.695Z,84.4057
2023-05-14T04:55:59.803Z,83.5435
2023-05-14T04:57:07.783Z,84.6467
2023-05-14T04:58:15.722Z,85.3366
2023-05-14T04:59:23.772Z,84.9584
2023-05-14T05:00:31.853Z,84.9673
2023-05-14T05:01:40.160Z,85.7985
2023-05-14T05:02:48.106Z,84.3678
2023-05-14T05:03:56.261Z,85.0448
2023-05-14T05:05:04.277Z,85.0108
2023-05-14T05:06:12.546Z,84.5697
2023-05-14T05:07:20.447Z,84.1418
2023-05-14T05:08:28.375Z,84.6416
2023-05-14T05:09:36.449Z,85.0003
2023-05-14T05:10:44.569Z,84.7285
2023-05-14T05:11:52.556Z,84.1829
2023-05-14T05:13:00.576Z,83.7531
2023-05-14T05:14:08.569Z,83.9140
2023-05-14T05:15:16.611Z,82.9816
2023-05-14T05:16:24.857Z,83.1298
2023-05-14T05:17:32.925Z,82.7417
2023-05-14T05:18:41.092Z,83.1441
2023-05-14T05:19:48.979Z,85.2151
2023-05-14T05:20:57.140Z,84.2769
2023-05-14T05:22:05.257Z,83.4900
2023-05-14T05:23:13.048Z,82.2892
2023-05-14T05:24:21.308Z,83.8925
2023-05-14T05:25:29.505Z,84.0555
2023-05-14T05:26:37.332Z,83.2660
2023-05-14T05:27:45.313Z,83.6279
2023-05-14T05:28:53.292Z,83.3772
2023-05-14T05:30:01.439Z,82.0685
2023-05-14T05:31:09.558Z,81.4177
2023-05-14T05:32:17.633Z,82.2867
2023-05-14T05:33:25.685Z,82.7417
2023-05-14T05:34:33.720Z,82.5154
2023-05-14T05:35:41.940Z,82.2198
2023-05-14T05:36:49.864Z,82.4236
2023-05-14T05:38:00.528Z,83.2196
2023-05-14T05:39:10.932Z,82.8486
2023-05-14T05:40:18.948Z,82.6535
2023-05-14T05:41:26.890Z,80.8917
2023-05-14T05:42:34.874Z,82.0643
2023-05-14T05:43:42.944Z,81.6765
2023-05-14T05:44:51.134Z,82.3056
2023-05-14T05:45:59.158Z,82.1287
2023-05-14T05:47:07.451Z,81.7561
2023-05-14T05:48:15.312Z,81.9572
2023-05-14T05:49:23.477Z,84.1366
2023-05-14T05:50:31.389Z,81.0213
2023-05-14T05:51:39.471Z,80.4898
2023-05-14T05:52:47.573Z,80.2657
2023-05-14T05:53:55.604Z,82.1067
2023-05-14T05:55:03.790Z,80.5191
2023-05-14T05:56:11.566Z,81.0983
2023-05-14T05:57:19.638Z,80.9910
2023-05-14T05:58:27.768Z,81.6488
2023-05-14T05:59:35.871Z,83.0824
2023-05-14T06:00:44.022Z,80.6834
2023-05-14T06:01:52.086Z,80.5435
2023-05-14T06:03:00.312Z,80.4570
2023-05-14T06:04:08.170Z,80.5181
2023-05-14T06:05:16.303Z,82.7745
2023-05-14T06:06:24.224Z,82.1544
2023-05-14T06:07:32.299Z,82.8818
2023-05-14T06:08:40.396Z,81.4405
2023-05-14T06:09:48.456Z,81.2942
2023-05-14T06:10:56.362Z,80.9393
2023-05-14T06:12:04.378Z,82.1226
2023-05-14T06:13:12.432Z,82.5778
2023-05-14T06:14:20.626Z,81.3658
2023-05-14T06:15:28.801Z,81.2427
2023-05-14T06:16:36.766Z,84.1485
2023-05-14T06:17:44.836Z,83.0005
2023-05-14T06:18:53.047Z,81.5561
2023-05-14T06:20:00.925Z,81.5749
2023-05-14T06:21:09.013Z,81.8640
2023-05-14T06:22:17.036Z,81.8085
2023-05-14T06:23:25.091Z,81.3698
2023-05-14T06:24:33.045Z,81.3227
2023-05-14T06:25:41.083Z,82.2546
2023-05-14T06:26:49.183Z,83.3767
2023-05-14T06:27:57.176Z,82.6782
2023-05-14T06:29:05.386Z,82.9971
2023-05-14T06:30:13.401Z,82.6789
2023-05-14T06:31:21.544Z,82.9459
2023-05-14T06:32:29.609Z,84.0181
2023-05-14T06:33:37.662Z,83.9132
2023-05-14T06:34:45.784Z,82.6205
2023-05-14T06:35:53.937Z,84.0599
2023-05-14T06:37:01.830Z,83.5454
2023-05-14T06:38:10.000Z,83.0197
2023-05-14T06:39:17.908Z,83.1166
2023-05-14T06:40:25.966Z,83.3530
2023-05-14T06:41:33.874Z,81.9875
2023-05-14T06:42:41.949Z,81.9955
2023-05-14T06:43:50.164Z,83.0803
2023-05-14T06:44:58.230Z,82.5222
2023-05-14T06:46:06.270Z,82.8637
2023-05-14T06:47:14.356Z,83.0417
2023-05-14T06:48:22.428Z,84.2490
2023-05-14T06:49:30.467Z,83.9827
2023-05-14T06:50:38.619Z,82.9572
2023-05-14T06:51:46.565Z,82.7096
2023-05-14T06:52:54.609Z,83.8172
2023-05-14T06:54:02.694Z,83.7658
2023-05-14T06:55:10.632Z,84.5465
2023-05-14T06:56:18.655Z,82.8265
2023-05-14T06:57:26.721Z,82.5101
2023-05-14T06:58:34.959Z,82.5423
2023-05-14T06:59:42.982Z,83.7513
2023-05-14T07:00:51.071Z,82.8435
2023-05-14T07:01:59.161Z,83.6845
2023-05-14T07:03:07.213Z,84.7170
2023-05-14T07:04:15.267Z,84.8441
2023-05-14T07:05:23.220Z,86.0436
2023-05-14T07:06:31.392Z,85.5318
2023-05-14T07:07:39.517Z,84.9477
2023-05-14T07:08:47.389Z,85.7556
2023-05-14T07:09:55.380Z,84.8671
2023-05-14T07:11:03.445Z,86.0758
2023-05-14T07:12:11.563Z,86.5417
2023-05-14T07:13:19.688Z,86.2198
2023-05-14T07:14:27.692Z,85.1396
2023-05-14T07:15:35.769Z,86.6314
2023-05-14T07:16:43.882Z,86.2699
2023-05-14T07:17:51.994Z,86.6710
2023-05-14T07:18:59.976Z,87.0255
2023-05-14T07:20:08.046Z,86.7787
2023-05-14T07:21:16.066Z,86.9838
2023-05-14T07:22:24.131Z,87.6428
2023-05-14T07:23:32.196Z,87.4812
2023-05-14T07:24:40.151Z,87.8082
2023-05-14T07:25:48.206Z,87.3985
2023-05-14T07:26:56.285Z,87.3746
2023-05-14T07:28:04.429Z,86.3353
2023-05-14T07:29:12.522Z,86.1281
2023-05-14T07:30:20.541Z,86.2852
2023-05-14T07:31:28.673Z,85.8468
2023-05-14T07:32:36.657Z,85.7308
2023-05-14T07:33:44.666Z,85.7004
2023-05-14T07:34:52.858Z,83.9838
2023-05-14T07:36:00.804Z,84.3715
2023-05-14T07:37:08.883Z,83.6262
2023-05-14T07:38:17.020Z,84.1725
2023-05-14T07:39:24.955Z,84.5471
2023-05-14T07:40:33.121Z,84.8765
2023-05-14T07:41:41.027Z,81.7715
2023-05-14T07:42:49.200Z,81.0989
2023-05-14T07:43:57.618Z,80.6068
2023-05-14T07:45:05.381Z,82.7937
2023-05-14T07:46:13.440Z,81.8655
2023-05-14T07:47:21.443Z,81.3705
2023-05-14T07:48:29.520Z,81.6673
2023-05-14T07:49:37.554Z,81.7366
2023-05-14T07:50:45.630Z,79.2990
2023-05-14T07:51:53.709Z,80.5043
2023-05-14T07:53:01.770Z,80.5520
2023-05-14T07:54:09.680Z,78.9777
2023-05-14T07:55:17.728Z,77.4906
2023-05-14T07:56:25.788Z,78.3865
2023-05-14T07:57:34.178Z,76.7145
2023-05-14T07:58:41.973Z,77.1527
2023-05-14T07:59:50.154Z,75.5423
2023-05-14T08:00:58.099Z,78.1995
2023-05-14T08:02:06.185Z,78.2726
2023-05-14T08:03:14.415Z,77.5695
2023-05-14T08:04:22.414Z,76.4734
2023-05-14T08:05:30.337Z,75.7434
2023-05-14T08:06:38.498Z,77.0062
2023-05-14T08:07:46.501Z,78.3116
2023-05-14T08:08:54.452Z,77.3039
2023-05-14T08:10:02.478Z,77.0596
2023-05-14T08:11:10.610Z,76.8508
2023-05-14T08:12:18.702Z,77.3032
2023-05-14T08:13:26.917Z,75.7649
2023-05-14T08:14:34.863Z,74.8732
2023-05-14T08:15:42.968Z,74.4205
2023-05-14T08:16:51.040Z,76.3884
2023-05-14T08:17:59.017Z,75.9660
2023-05-14T08:19:07.107Z,78.2783
2023-05-14T08:20:15.343Z,77.8639
2023-05-14T08:21:23.257Z,78.6165
2023-05-14T08:22:31.341Z,78.4834
2023-05-14T08:23:39.260Z,78.3801
2023-05-14T08:24:47.314Z,78.5761
2023-05-14T08:25:55.406Z,79.4798
2023-05-14T08:27:03.412Z,78.7880
2023-05-14T08:28:11.623Z,78.3817
2023-05-14T08:29:19.656Z,78.4154
2023-05-14T08:30:27.891Z,81.0273
2023-05-14T08:31:35.821Z,79.3665
2023-05-14T08:32:43.868Z,75.8365
2023-05-14T08:33:51.890Z,77.4737
2023-05-14T08:34:59.957Z,77.3473
2023-05-14T08:36:08.072Z,75.7963
2023-05-14T08:37:16.139Z,76.0801
2023-05-14T08:38:23.984Z,74.3950
2023-05-14T08:39:32.080Z,76.4752
2023-05-14T08:40:40.107Z,75.7708
2023-05-14T08:41:48.298Z,75.5068
2023-05-14T08:42:56.456Z,74.3717
2023-05-14T08:44:04.413Z,76.0632
2023-05-14T08:45:12.476Z,75.9111
2023-05-14T08:46:20.550Z,76.5800
2023-05-14T08:47:28.626Z,76.7643
2023-05-14T08:48:36.728Z,77.6880
2023-05-14T08:49:44.705Z,76.0211
2023-05-14T08:50:52.733Z,74.4728
2023-05-14T08:52:00.813Z,73.0084
2023-05-14T08:53:08.753Z,74.0469
2023-05-14T08:54:16.846Z,72.3154
2023-05-14T08:55:24.836Z,73.6623
2023-05-14T08:56:33.070Z,72.1360
2023-05-14T08:57:41.106Z,75.1572
2023-05-14T08:58:49.132Z,72.2625
2023-05-14T08:59:57.272Z,70.1291
2023-05-14T09:01:05.224Z,69.4012
2023-05-14T09:02:13.347Z,70.4849
2023-05-14T09:03:21.423Z,70.5635
2023-05-14T09:04:29.414Z,70.5464
2023-05-14T09:05:37.553Z,69.0414
2023-05-14T09:06:45.497Z,67.3931
2023-05-14T09:07:53.480Z,69.0057
2023-05-14T09:09:01.547Z,68.7970
2023-05-14T09:10:09.564Z,70.6038
2023-05-14T09:11:17.980Z,73.1852
2023-05-14T09:12:25.766Z,72.9184
2023-05-14T09:13:33.827Z,72.4756
2023-05-14T09:14:41.956Z,72.0330
2023-05-14T09:15:49.997Z,73.7835
2023-05-14T09:16:58.061Z,71.0905
2023-05-14T09:18:06.303Z,72.2653
2023-05-14T09:19:14.198Z,70.6443
2023-05-14T09:20:22.718Z,72.1859
2023-05-14T09:21:32.178Z,71.6324
2023-05-14T09:22:43.104Z,70.7979
2023-05-14T09:23:51.274Z,67.3350
2023-05-14T09:24:59.276Z,70.6936
2023-05-14T09:26:07.534Z,70.0782
2023-05-14T09:27:15.410Z,68.1437
2023-05-14T09:28:23.420Z,68.6966
2023-05-14T09:29:31.527Z,70.9307
2023-05-14T09:30:39.618Z,70.8894
2023-05-14T09:31:47.694Z,71.6810
2023-05-14T09:32:55.813Z,72.7021
2023-05-14T09:34:03.826Z,70.1407
2023-05-14T09:35:11.757Z,71.3599
2023-05-14T09:36:19.824Z,70.9804
2023-05-14T09:37:27.855Z,71.0491
2023-05-14T09:38:35.980Z,74.6979
2023-05-14T09:39:44.094Z,73.8588
2023-05-14T09:40:52.189Z,71.9379
2023-05-14T09:42:00.200Z,73.7806
2023-05-14T09:43:08.264Z,71.2555
2023-05-14T09:44:16.343Z,70.4319
2023-05-14T09:45:24.451Z,70.2684
2023-05-14T09:46:32.415Z,70.5763
2023-05-14T09:47:40.564Z,70.8440
2023-05-14T09:48:48.506Z,70.8172
2023-05-14T09:49:56.517Z,68.3781
2023-05-14T09:51:04.910Z,68.4934
2023-05-14T09:52:12.638Z,69.2596
2023-05-14T09:53:20.846Z,69.0196
2023-05-14T09:54:28.877Z,73.5685
2023-05-14T09:55:36.911Z,69.9098
2023-05-14T09:56:45.007Z,67.3311
2023-05-14T09:57:53.040Z,71.1232
2023-05-14T09:59:01.132Z,71.5347
2023-05-14T10:00:09.056Z,68.7211
2023-05-14T10:01:17.254Z,70.6061
2023-05-14T10:02:25.553Z,69.8653
2023-05-14T10:03:33.253Z,69.5999
2023-05-14T10:04:41.310Z,69.2619
2023-05-14T10:05:49.367Z,71.7783
2023-05-14T10:06:57.559Z,73.5357
2023-05-14T10:08:05.601Z,73.0558
2023-05-14T10:09:13.673Z,74.3826
2023-05-14T10:10:21.959Z,74.5351
2023-05-14T10:11:29.804Z,75.0599
2023-05-14T10:12:37.857Z,75.0316
2023-05-14T10:13:46.082Z,76.1819
2023-05-14T10:14:53.977Z,77.2578
2023-05-14T10:16:02.045Z,73.7381
2023-05-14T10:17:10.246Z,73.3790
2023-05-14T10:18:18.149Z,76.0348
2023-05-14T10:19:26.225Z,72.0708
2023-05-14T10:20:34.103Z,71.6870
2023-05-14T10:21:42.315Z,72.3320
2023-05-14T10:22:50.360Z,71.8366
2023-05-14T10:23:58.493Z,70.3745
2023-05-14T10:25:06.526Z,73.7036
2023-05-14T10:26:14.560Z,73.4657
2023-05-14T10:27:22.645Z,71.1859
2023-05-14T10:28:30.687Z,69.5538
2023-05-14T10:29:38.826Z,72.7563
2023-05-14T10:30:46.850Z,70.8673
2023-05-14T10:31:54.820Z,69.9927
2023-05-14T10:33:02.792Z,69.3536
2023-05-14T10:34:10.839Z,70.5946
2023-05-14T10:35:18.914Z,68.4166
2023-05-14T10:36:27.104Z,68.9915
2023-05-14T10:37:35.150Z,70.7715
2023-05-14T10:38:43.331Z,71.6925
2023-05-14T10:39:51.259Z,68.4224
2023-05-14T10:40:59.302Z,67.0782
2023-05-14T10:42:07.496Z,67.0992
2023-05-14T10:43:15.420Z,66.5644
2023-05-14T10:44:23.688Z,66.8567
2023-05-14T10:45:31.569Z,68.1562
2023-05-14T10:46:39.718Z,64.7111
2023-05-14T10:47:47.619Z,66.1945
2023-05-14T10:48:55.582Z,66.3063
2023-05-14T10:50:03.656Z,66.3813
2023-05-14T10:51:11.938Z,67.5360
2023-05-14T10:52:19.912Z,68.5985
2023-05-14T10:53:28.039Z,67.8121
2023-05-14T10:54:36.164Z,66.5485
2023-05-14T10:55:44.067Z,66.6468
2023-05-14T10:56:52.136Z,64.2684
2023-05-14T10:58:00.223Z,64.6560
2023-05-14T10:59:08.276Z,62.7443
2023-05-14T11:00:16.317Z,61.7766
2023-05-14T11:01:24.433Z,57.7229
2023-05-14T11:02:32.334Z,58.7362
2023-05-14T11:03:40.395Z,55.1045
2023-05-14T11:04:48.473Z,55.6903
2023-05-14T11:05:56.826Z,53.2969
2023-05-14T11:07:04.701Z,52.5991
2023-05-14T11:08:12.763Z,50.3657
2023-05-14T11:09:20.796Z,51.7162
2023-05-14T11:10:28.987Z,51.3486
2023-05-14T11:11:36.928Z,51.3558
2023-05-14T11:12:44.977Z,53.2394
2023-05-14T11:13:52.989Z,52.4927
2023-05-14T11:15:01.083Z,51.2690
2023-05-14T11:16:21.977Z,50.4638
2023-05-14T11:17:21.941Z,50.6019
2023-05-14T11:18:30.067Z,49.0353
2023-05-14T11:19:38.066Z,53.9108
2023-05-14T11:20:46.240Z,53.1877
2023-05-14T11:21:54.361Z,56.9199
2023-05-14T11:23:02.373Z,59.5240
2023-05-14T11:24:10.416Z,60.8618
2023-05-14T11:25:18.455Z,62.4270
2023-05-14T11:26:26.685Z,64.7038
2023-05-14T11:27:34.666Z,66.1563
2023-05-14T11:28:42.629Z,67.2209
2023-05-14T11:29:50.802Z,65.9550
2023-05-14T11:30:58.763Z,68.1624
2023-05-14T11:32:06.759Z,69.4286
2023-05-14T11:33:14.880Z,68.1932
2023-05-14T11:34:22.850Z,70.0011
2023-05-14T11:35:31.024Z,69.2795
2023-05-14T11:36:39.045Z,70.0102
2023-05-14T11:37:47.098Z,72.5481
2023-05-14T11:38:55.223Z,72.0956
2023-05-14T11:40:03.345Z,71.1113
2023-05-14T11:41:11.288Z,70.8582
2023-05-14T11:42:19.532Z,71.8592
2023-05-14T11:43:27.439Z,73.3237
2023-05-14T11:44:35.498Z,75.1450
2023-05-14T11:45:43.536Z,72.5289
2023-05-14T11:46:51.429Z,71.3410
2023-05-14T11:47:59.508Z,71.0706
2023-05-14T11:49:07.553Z,70.7280
2023-05-14T11:50:15.857Z,71.5287
2023-05-14T11:51:23.807Z,72.1203
2023-05-14T11:52:31.854Z,71.1508
2023-05-14T11:53:39.894Z,70.3535
2023-05-14T11:54:47.980Z,68.4131
2023-05-14T11:55:56.135Z,66.1594
2023-05-14T11:57:04.095Z,68.8683
2023-05-14T11:58:12.184Z,69.4699
2023-05-14T11:59:20.363Z,69.8101
2023-05-14T12:00:28.273Z,71.6691
2023-05-14T12:01:36.235Z,73.7153
2023-05-14T12:02:44.302Z,70.5917
2023-05-14T12:03:52.478Z,67.4739
2023-05-14T12:05:00.553Z,68.6934
2023-05-14T12:06:08.589Z,65.6839
2023-05-14T12:07:16.731Z,67.7091
2023-05-14T12:08:24.655Z,69.0938
2023-05-14T12:09:32.696Z,68.8151
2023-05-14T12:10:40.770Z,68.7310
2023-05-14T12:11:48.806Z,72.2822
2023-05-14T12:12:56.916Z,72.6347
2023-05-14T12:14:05.164Z,72.7494
2023-05-14T12:15:13.015Z,71.7793
2023-05-14T12:16:21.005Z,73.8375
2023-05-14T12:17:29.083Z,74.0001
2023-05-14T12:18:37.241Z,74.7783
2023-05-14T12:19:45.275Z,76.1036
2023-05-14T12:20:53.297Z,76.7499
2023-05-14T12:22:01.388Z,78.8780
2023-05-14T12:23:09.602Z,77.9436
2023-05-14T12:24:17.684Z,79.3410
2023-05-14T12:25:25.634Z,78.6779
2023-05-14T12:26:33.799Z,80.1475
2023-05-14T12:27:41.721Z,82.6814
2023-05-14T12:28:49.768Z,81.9789
2023-05-14T12:30:01.985Z,82.2945
2023-05-14T12:31:10.706Z,83.1458
2023-05-14T12:32:18.765Z,82.8515
2023-05-14T12:33:26.816Z,83.4504
2023-05-14T12:34:37.227Z,83.9010
2023-05-14T12:35:47.932Z,83.3936
2023-05-14T12:36:55.957Z,84.4628
2023-05-14T12:38:04.046Z,83.9562
2023-05-14T12:39:12.070Z,84.8941
2023-05-14T12:40:20.273Z,87.0093
2023-05-14T12:41:28.445Z,87.4103
2023-05-14T12:42:36.298Z,86.1739
2023-05-14T12:43:44.421Z,87.6145
2023-05-14T12:44:52.296Z,87.8767
2023-05-14T12:46:00.329Z,87.7254
2023-05-14T12:47:08.521Z,87.7637
2023-05-14T12:48:16.590Z,87.8206
2023-05-14T12:49:24.642Z,86.5214
2023-05-14T12:50:32.805Z,87.6346
2023-05-14T12:51:40.855Z,88.0655
2023-05-14T12:52:48.857Z,87.5459
2023-05-14T12:53:56.968Z,88.2472
2023-05-14T12:55:05.058Z,85.5917
2023-05-14T12:56:13.042Z,84.5537
2023-05-14T12:57:21.105Z,85.6932
2023-05-14T12:58:29.370Z,87.0893
2023-05-14T12:59:37.122Z,83.5640
2023-05-14T13:00:45.187Z,82.1078
2023-05-14T13:01:53.220Z,84.8650
2023-05-14T13:03:01.444Z,84.5175
2023-05-14T13:04:09.539Z,80.6046
2023-05-14T13:05:17.585Z,81.0800
2023-05-14T13:06:25.706Z,83.4348
2023-05-14T13:07:33.649Z,86.2825
2023-05-14T13:08:42.739Z,85.1542
2023-05-14T13:09:49.902Z,83.0520
2023-05-14T13:10:57.839Z,83.8771
2023-05-14T13:12:05.898Z,86.1118
2023-05-14T13:13:13.988Z,85.8014
2023-05-14T13:14:21.905Z,85.0899
2023-05-14T13:15:30.012Z,85.2394
2023-05-14T13:16:38.062Z,85.1297
2023-05-14T13:17:46.252Z,84.4495
2023-05-14T13:18:54.302Z,81.1250
2023-05-14T13:20:02.318Z,83.1527
2023-05-14T13:21:10.523Z,82.7392
2023-05-14T13:22:18.579Z,81.3158
2023-05-14T13:23:26.541Z,82.3461
2023-05-14T13:24:34.599Z,83.0247
2023-05-14T13:25:42.663Z,82.4214
2023-05-14T13:26:50.745Z,83.4669
2023-05-14T13:27:58.785Z,83.4630
2023-05-14T13:29:06.712Z,79.2411
2023-05-14T13:30:14.805Z,78.0709
2023-05-14T13:31:22.962Z,74.7307
2023-05-14T13:32:31.032Z,76.2673
2023-05-14T13:33:39.085Z,80.6869
2023-05-14T13:34:47.126Z,79.8306
2023-05-14T13:35:55.238Z,77.4656
2023-05-14T13:37:03.285Z,72.8400
2023-05-14T13:38:11.562Z,74.0759
2023-05-14T13:39:19.450Z,77.2547
2023-05-14T13:40:27.459Z,75.5933
2023-05-14T13:41:35.541Z,76.2538
2023-05-14T13:42:43.618Z,75.4996
2023-05-14T13:43:51.567Z,76.6836